Jack Robertson — WDE5993 — position and weather

sailwx.info

Track history (hours):
 
Tides and Currents Weather Stations Pressure Air Temp Water Temp Dewpoint Dewpoint Depression Visibility Wind Speed Wind Dir Waves Ship Positions

Oceanographic research ship Jack Robertson (United States)

Owner: University of Washington Applied Physics Laboratory, Seattle, WA. More information available from US FCC via Universal Licensing System and Coast Guard Vessel Documentation Center.

Last reported at 2019-Feb-21 00:37 UTC. Time now 2019-Feb-21 11:38 UTC.
Position N 47°39' W 122°19'.

; draft 1.7 m.

Type: Other ship. MMSI: 367374350.

Date/timePositionNaut miles runAvg speedWind from/ knotsBaromVisibWave heightAir tempDewpointWater temp
2019-Feb-21 00:37N 47°39' W 122°19'0 0.4
2019-Feb-21 00:30N 47°39' W 122°19'1 2.6
2019-Feb-21 00:00N 47°39' W 122°17'2 4.2
2019-Feb-20 23:30N 47°40' W 122°14'1 2.2
2019-Feb-20 23:00N 47°41' W 122°14'1 3.0
2019-Feb-20 22:30N 47°39' W 122°15'1 1.2
2019-Feb-20 22:00N 47°40' W 122°15'0 1.0
2019-Feb-20 21:30N 47°40' W 122°14'1 2.4
2019-Feb-20 21:00N 47°39' W 122°16'1 2.0
2019-Feb-20 20:31N 47°40' W 122°15'1 1.4
2019-Feb-20 20:00N 47°39' W 122°15'1 2.3
2019-Feb-20 19:30N 47°40' W 122°14'0 0.1
2019-Feb-20 19:00N 47°40' W 122°14'1 2.6
2019-Feb-20 18:30N 47°39' W 122°15'1 1.4
2019-Feb-20 18:00N 47°40' W 122°14'1 2.0
2019-Feb-20 17:30N 47°39' W 122°15'0 0.2
2019-Feb-20 17:00N 47°39' W 122°15'3 5.4
2019-Feb-20 16:31N 47°39' W 122°19'0 0.1
2019-Feb-20 16:00N 47°39' W 122°19'0 0.0
2019-Feb-20 15:30N 47°39' W 122°19'0 0.0
2019-Feb-20 15:00N 47°39' W 122°19'0 0.0
2019-Feb-20 14:30N 47°39' W 122°19'0 0.0
2019-Feb-20 02:42N 47°39' W 122°19'0 0.0
2019-Feb-20 02:30N 47°39' W 122°19'0 0.0
2019-Feb-20 02:00N 47°39' W 122°19'0 0.1
2019-Feb-20 01:30N 47°39' W 122°19'0 0.1
2019-Feb-20 01:00N 47°39' W 122°19'0 0.1
2019-Feb-20 00:30N 47°39' W 122°19'0 0.1
2019-Feb-20 00:00N 47°39' W 122°19'0 0.0
2019-Feb-19 23:30N 47°39' W 122°19'0 0.0
2019-Feb-19 23:00N 47°39' W 122°19'0 0.0
2019-Feb-19 22:30N 47°39' W 122°19'0 0.1
2019-Feb-19 22:00N 47°39' W 122°19'0 0.1
2019-Feb-19 21:30N 47°39' W 122°19'0 0.0
2019-Feb-19 21:00N 47°39' W 122°19'0 0.1
2019-Feb-19 20:30N 47°39' W 122°19'0 0.0
2019-Feb-19 20:00N 47°39' W 122°19'0 0.0
2019-Feb-19 19:30N 47°39' W 122°19'  
2019-Feb-11 21:58N 47°39' W 122°19'1 3.1
2019-Feb-11 21:31N 47°39' W 122°21'1 3.0
2019-Feb-11 21:00N 47°40' W 122°23'1 2.0
2019-Feb-11 20:30N 47°39' W 122°22'2 3.7
2019-Feb-11 20:00N 47°39' W 122°19'  
Track history (hours):
 
Tides and Currents Weather Stations Pressure Air Temp Water Temp Dewpoint Dewpoint Depression Visibility Wind Speed Wind Dir Waves Ship Positions

Oceanographic research ship Jack Robertson (United States)

Owner: University of Washington Applied Physics Laboratory, Seattle, WA. More information available from US FCC via Universal Licensing System and Coast Guard Vessel Documentation Center.

Last reported at 2019-Feb-21 00:37 UTC. Time now 2019-Feb-21 11:38 UTC.
Position N 47°39' W 122°19'.

; draft 1.7 m.

Type: Other ship. MMSI: 367374350.

Date/timePositionNaut miles runAvg speedWind from/ knotsBaromVisibWave heightAir tempDewpointWater temp
2019-Feb-21 00:37N 47°39' W 122°19'0 0.4
2019-Feb-21 00:30N 47°39' W 122°19'1 2.6
2019-Feb-21 00:00N 47°39' W 122°17'2 4.2
2019-Feb-20 23:30N 47°40' W 122°14'1 2.2
2019-Feb-20 23:00N 47°41' W 122°14'1 3.0
2019-Feb-20 22:30N 47°39' W 122°15'1 1.2
2019-Feb-20 22:00N 47°40' W 122°15'0 1.0
2019-Feb-20 21:30N 47°40' W 122°14'1 2.4
2019-Feb-20 21:00N 47°39' W 122°16'1 2.0
2019-Feb-20 20:31N 47°40' W 122°15'1 1.4
2019-Feb-20 20:00N 47°39' W 122°15'1 2.3
2019-Feb-20 19:30N 47°40' W 122°14'0 0.1
2019-Feb-20 19:00N 47°40' W 122°14'1 2.6
2019-Feb-20 18:30N 47°39' W 122°15'1 1.4
2019-Feb-20 18:00N 47°40' W 122°14'1 2.0
2019-Feb-20 17:30N 47°39' W 122°15'0 0.2
2019-Feb-20 17:00N 47°39' W 122°15'3 5.4
2019-Feb-20 16:31N 47°39' W 122°19'0 0.1
2019-Feb-20 16:00N 47°39' W 122°19'0 0.0
2019-Feb-20 15:30N 47°39' W 122°19'0 0.0
2019-Feb-20 15:00N 47°39' W 122°19'0 0.0
2019-Feb-20 14:30N 47°39' W 122°19'0 0.0
2019-Feb-20 02:42N 47°39' W 122°19'0 0.0
2019-Feb-20 02:30N 47°39' W 122°19'0 0.0
2019-Feb-20 02:00N 47°39' W 122°19'0 0.1
2019-Feb-20 01:30N 47°39' W 122°19'0 0.1
2019-Feb-20 01:00N 47°39' W 122°19'0 0.1
2019-Feb-20 00:30N 47°39' W 122°19'0 0.1
2019-Feb-20 00:00N 47°39' W 122°19'0 0.0
2019-Feb-19 23:30N 47°39' W 122°19'0 0.0
2019-Feb-19 23:00N 47°39' W 122°19'0 0.0
2019-Feb-19 22:30N 47°39' W 122°19'0 0.1
2019-Feb-19 22:00N 47°39' W 122°19'0 0.1
2019-Feb-19 21:30N 47°39' W 122°19'0 0.0
2019-Feb-19 21:00N 47°39' W 122°19'0 0.1
2019-Feb-19 20:30N 47°39' W 122°19'0 0.0
2019-Feb-19 20:00N 47°39' W 122°19'0 0.0
2019-Feb-19 19:30N 47°39' W 122°19'  
2019-Feb-11 21:58N 47°39' W 122°19'1 3.1
2019-Feb-11 21:31N 47°39' W 122°21'1 3.0
2019-Feb-11 21:00N 47°40' W 122°23'1 2.0
2019-Feb-11 20:30N 47°39' W 122°22'2 3.7
2019-Feb-11 20:00N 47°39' W 122°19'  

Dump ship's entire track history